ZF1RC George Town KY current weather conditions

sailwx.info

Wind from 073 at 0 knots gusting 1

Air temperature 25.6° C
Dewpoint 21.8° C

Last reported at 2015-Feb-27 04:50 UTC.
Time now 2015-Feb-27 06:04 UTC

Location: N 19°16' W 081°23'.
View on Google Maps.

See reports from other nearby stations

  
Tides and Currents Weather Stations Pressure Air Temp Water Temp Dewpoint Dewpoint Depression Visibility Wind Speed Wind Dir Waves Ship Positions
date/time (UTC)wind fromknots sea level pressurealtimeterstation pressurevisibilityair tempwater tempwave heightnotes
2015-Feb-27 04:50 073 0 gusting 1 25.6
2015-Feb-27 04:40 208 25.6
2015-Feb-27 04:30 072 25.0
2015-Feb-27 04:20 105 25.6
2015-Feb-27 04:10 055 25.6
2015-Feb-27 04:00 254 25.0
2015-Feb-27 03:50 185 25.6
2015-Feb-27 03:40 184 25.6
2015-Feb-27 03:30 134 25.6
2015-Feb-27 03:20 108 25.6
2015-Feb-27 03:10 194 1 gusting 2 25.6
2015-Feb-27 03:00 115 25.6
2015-Feb-27 02:50 174 25.6
2015-Feb-27 02:40 148 25.6
2015-Feb-27 02:30 137 25.6
2015-Feb-27 02:20 143 0 gusting 0 25.6
2015-Feb-27 02:10 138 0 gusting 0 25.6
2015-Feb-27 02:00 169 0 gusting 0 25.6
2015-Feb-27 01:50 237 25.6
2015-Feb-27 01:40 079 25.6
2015-Feb-27 01:30 235 0 gusting 0 25.6
2015-Feb-27 01:20 210 0 gusting 1 25.6
2015-Feb-27 01:10 333 0 gusting 2 25.6
2015-Feb-27 01:00 204 0 gusting 4 25.6
2015-Feb-27 00:50 109 3 gusting 4 25.6
2015-Feb-27 00:40 131 25.6
2015-Feb-27 00:30 166 0 gusting 2 25.6
2015-Feb-27 00:20 135 1 gusting 5 25.6
2015-Feb-27 00:10 169 0 gusting 2 25.6
2015-Feb-27 00:00 147 25.6
2015-Feb-26 23:50 184 0 gusting 5 26.1
2015-Feb-26 23:40 212 1 gusting 4 26.1
2015-Feb-26 23:30 151 26.7
2015-Feb-26 23:20 222 0 gusting 2 26.1
2015-Feb-26 23:10 090 0 gusting 4 26.7
2015-Feb-26 23:00 139 1 gusting 5 26.7
2015-Feb-26 22:54 161 3 gusting 4 26.7
2015-Feb-26 22:50 145 2 gusting 4 26.7
2015-Feb-26 22:40 162 4 gusting 6 27.2
2015-Feb-26 22:30 146 4 gusting 6 27.2
2015-Feb-26 22:20 180 1 gusting 4 27.8
2015-Feb-26 22:10 124 5 gusting 7 27.8
2015-Feb-26 22:00 142 1 gusting 5 27.8
2015-Feb-26 21:50 191 2 gusting 8 27.8
2015-Feb-26 21:40 178 9 gusting 12 27.8
2015-Feb-26 21:30 165 4 gusting 8 27.8
2015-Feb-26 21:20 170 7 gusting 8 27.8
2015-Feb-26 21:10 162 8 gusting 11 27.8
2015-Feb-26 21:00 185 8 gusting 8 28.3
2015-Feb-26 20:50 160 2 gusting 6 28.3
2015-Feb-26 20:40 157 6 gusting 11 27.8
2015-Feb-26 20:30 154 8 gusting 10 28.3
2015-Feb-26 20:20 135 4 gusting 8 28.3
2015-Feb-26 20:10 133 5 gusting 8 28.3
2015-Feb-26 20:00 135 7 gusting 10 28.3
2015-Feb-26 19:50 173 10 gusting 11 27.8
2015-Feb-26 19:40 173 7 gusting 11 28.3
2015-Feb-26 19:30 167 8 gusting 12 28.3
2015-Feb-26 19:20 180 5 gusting 12 28.3
2015-Feb-26 19:10 171 6 gusting 10 27.8
2015-Feb-26 19:00 182 8 gusting 13 28.3
2015-Feb-26 18:50 192 7 gusting 12 28.3
2015-Feb-26 18:40 175 5 gusting 10 28.3
2015-Feb-26 18:30 171 7 gusting 12 28.3
2015-Feb-26 18:20 193 8 gusting 11 28.3
2015-Feb-26 18:10 154 11 gusting 13 28.3
2015-Feb-26 18:00 178 7 gusting 11 28.3
2015-Feb-26 17:50 158 7 gusting 10 28.9
2015-Feb-26 17:40 161 9 gusting 10 28.9
2015-Feb-26 17:30 161 6 gusting 6 28.9
2015-Feb-26 17:20 164 5 gusting 7 28.9
2015-Feb-26 17:10 122 11 gusting 12 28.3
2015-Feb-26 17:00 175 7 gusting 10 28.9
2015-Feb-26 16:50 158 2 gusting 12 28.3
2015-Feb-26 16:40 158 6 gusting 13 27.8
2015-Feb-26 16:30 199 8 gusting 13 28.3
2015-Feb-26 16:20 167 7 gusting 10 28.3
2015-Feb-26 16:10 185 8 gusting 11 28.3
2015-Feb-26 16:00 190 8 gusting 8 28.3
2015-Feb-26 15:50 163 1 gusting 7 28.9
2015-Feb-26 15:40 173 5 gusting 10 28.3
2015-Feb-26 15:30 092 5 gusting 6 28.3
2015-Feb-26 15:20 153 6 gusting 10 27.8
2015-Feb-26 15:10 126 2 gusting 7 28.3
2015-Feb-26 15:00 116 4 gusting 6 28.3
2015-Feb-26 14:50 186 5 gusting 6 27.8
2015-Feb-26 14:40 132 2 gusting 6 28.3
2015-Feb-26 14:30 144 2 gusting 8 27.8
2015-Feb-26 14:20 164 4 gusting 7 27.8
2015-Feb-26 14:10 149 2 gusting 6 27.2
2015-Feb-26 14:00 168 7 gusting 7 27.2
2015-Feb-26 13:50 144 0 gusting 6 27.2
2015-Feb-26 13:40 158 2 gusting 6 26.7
2015-Feb-26 13:30 221 1 gusting 7 26.7
2015-Feb-26 13:20 182 4 gusting 7 26.7
2015-Feb-26 13:10 192 5 gusting 6 26.1
2015-Feb-26 13:00 177 4 gusting 7 26.1
2015-Feb-26 12:50 125 3 gusting 6 26.1
2015-Feb-26 12:40 173 8 gusting 10 25.6
2015-Feb-26 12:30 181 3 gusting 6 25.6
2015-Feb-26 12:20 180 0 gusting 8 25.6
2015-Feb-26 12:10 124 7 gusting 12 25.6
2015-Feb-26 12:00 168 4 gusting 6 25.6
2015-Feb-26 11:50 132 4 gusting 6 25.6
2015-Feb-26 11:40 132 2 gusting 8 25.6
2015-Feb-26 11:30 067 1 gusting 6 25.6
2015-Feb-26 11:20 150 4 gusting 5 25.6
2015-Feb-26 11:10 158 6 gusting 7 25.6
2015-Feb-26 11:00 136 2 gusting 6 25.0
2015-Feb-26 10:50 142 1 gusting 4 25.0
2015-Feb-26 10:40 197 1 gusting 5 25.0
2015-Feb-26 10:30 074 3 gusting 6 25.6
2015-Feb-26 10:20 201 1 gusting 7 25.6
2015-Feb-26 10:10 173 1 gusting 6 25.0
2015-Feb-26 10:00 205 2 gusting 6 25.0
2015-Feb-26 09:50 173 4 gusting 6 25.0
2015-Feb-26 09:40 170 5 gusting 7 25.0
2015-Feb-26 09:30 185 4 gusting 5 25.6
2015-Feb-26 09:20 176 2 gusting 6 25.0
2015-Feb-26 09:10 179 2 gusting 4 25.0
2015-Feb-26 09:00 218 4 gusting 7 25.6
2015-Feb-26 08:50 148 2 gusting 7 25.0
2015-Feb-26 08:40 177 4 gusting 6 25.6
2015-Feb-26 08:30 140 4 gusting 6 25.0
2015-Feb-26 08:20 158 3 gusting 6 25.6
2015-Feb-26 08:10 199 1 gusting 4 25.0
2015-Feb-26 08:00 151 0 gusting 2 25.0
2015-Feb-26 07:50 140 1 gusting 6 25.0
2015-Feb-26 07:40 206 0 gusting 4 25.0
2015-Feb-26 07:30 201 2 gusting 6 25.0
2015-Feb-26 07:20 178 1 gusting 6 25.0
2015-Feb-26 07:10 029 1 gusting 4 25.0
2015-Feb-26 07:00 180 2 gusting 5 25.0
2015-Feb-26 06:50 056 25.0
2015-Feb-26 06:40 184 0 gusting 1 25.0
2015-Feb-26 06:30 097 0 gusting 2 25.0
2015-Feb-26 06:20 005 2 gusting 5 25.0
2015-Feb-26 06:10 119 1 gusting 5 25.0
2015-Feb-26 06:00 227 0 gusting 1 25.0
2015-Feb-26 05:50 213 25.0
2015-Feb-26 05:40 206 0 gusting 5 25.0
2015-Feb-26 05:30 341 0 gusting 1 25.0
2015-Feb-26 05:20 265 0 gusting 2 25.0
2015-Feb-26 05:10 141 0 gusting 0 25.0
2015-Feb-26 05:00 075 25.0
2015-Feb-26 04:50 090 0 gusting 4 25.0
2015-Feb-26 04:40 140 0 gusting 2 25.0
2015-Feb-26 04:30 133 0 gusting 1 25.0
2015-Feb-26 04:20 137 0 gusting 1 25.6
2015-Feb-26 04:10 098 25.0
2015-Feb-26 04:00 163 4 gusting 4 25.0
2015-Feb-26 03:50 169 0 gusting 2 25.6
2015-Feb-26 03:40 145 0 gusting 5 25.6
2015-Feb-26 03:30 172 2 gusting 6 25.6
2015-Feb-26 03:20 163 1 gusting 4 25.6
2015-Feb-26 03:10 148 1 gusting 4 25.6
2015-Feb-26 03:00 135 0 gusting 1 25.6
2015-Feb-26 02:50 138 2 gusting 2 25.6
2015-Feb-26 02:40 158 1 gusting 2 25.6
2015-Feb-26 02:30 190 0 gusting 1 25.6
2015-Feb-26 02:20 121 25.6
2015-Feb-26 02:10 129 25.6
2015-Feb-26 02:00 156 25.6
2015-Feb-26 01:50 164 25.6
2015-Feb-26 01:40 157 25.6
2015-Feb-26 01:30 197 0 gusting 2 25.6
2015-Feb-26 01:20 134 1 gusting 1 25.6
2015-Feb-26 01:10 189 5 gusting 7 25.6
2015-Feb-26 01:00 169 1 gusting 2 25.6
2015-Feb-26 00:50 187 0 gusting 5 25.6
2015-Feb-26 00:40 133 25.6
2015-Feb-26 00:30 172 1 gusting 4 25.6
2015-Feb-26 00:20 152 1 gusting 6 25.6
2015-Feb-26 00:10 121 0 gusting 6 25.6
2015-Feb-26 00:00 193 4 gusting 5 25.6
2015-Feb-25 23:50 106 0 gusting 2 25.6
2015-Feb-25 23:40 186 0 gusting 4 25.6
2015-Feb-25 23:30 189 0 gusting 2 26.1
2015-Feb-25 23:20 034 0 gusting 6 26.1
2015-Feb-25 23:10 171 4 gusting 6 26.1
2015-Feb-25 23:00 136 0 gusting 6 26.7
2015-Feb-25 22:54 256 1 gusting 2 26.7
2015-Feb-25 22:50 134 1 gusting 6 26.7
2015-Feb-25 22:40 159 3 gusting 6 27.2
2015-Feb-25 22:30 168 1 gusting 1 27.8
2015-Feb-25 22:20 200 1 gusting 6 27.8
2015-Feb-25 22:10 169 1 gusting 6 27.8
2015-Feb-25 22:00 155 1 gusting 1 28.3
2015-Feb-25 21:50 112 0 gusting 5 28.3
2015-Feb-25 21:40 319 28.3
2015-Feb-25 21:30 063 0 gusting 0 28.9
2015-Feb-25 21:20 108 28.9
2015-Feb-25 21:10 047 0 gusting 1 28.9
2015-Feb-25 21:00 146 0 gusting 2 28.9
2015-Feb-25 20:50 335 28.9
2015-Feb-25 20:40 186 0 gusting 0 29.4
2015-Feb-25 20:30 213 0 gusting 4 28.9
2015-Feb-25 20:20 163 0 gusting 1 28.9
2015-Feb-25 20:10 136 0 gusting 5 28.3
2015-Feb-25 20:00 192 2 gusting 2 28.9
2015-Feb-25 19:50 134 28.9
2015-Feb-25 19:40 303 29.4
2015-Feb-25 19:30 157 1 gusting 2 29.4
2015-Feb-25 19:20 089 0 gusting 1 28.9
2015-Feb-25 19:10 072 1 gusting 4 28.9
2015-Feb-25 19:00 045 0 gusting 5 28.9
2015-Feb-25 18:50 127 0 gusting 6 28.9
2015-Feb-25 18:40 133 3 gusting 5 28.3
2015-Feb-25 18:30 117 28.9
2015-Feb-25 18:20 170 1 gusting 1 28.9
2015-Feb-25 18:10 155 0 gusting 1 28.9
2015-Feb-25 18:00 276 0 gusting 1 29.4
2015-Feb-25 17:50 053 0 gusting 4 28.9
2015-Feb-25 17:40 162 0 gusting 2 28.3
2015-Feb-25 17:30 186 0 gusting 1 28.3
2015-Feb-25 17:20 330 1 gusting 2 28.9
2015-Feb-25 17:10 156 0 gusting 5 28.3
2015-Feb-25 17:00 144 0 gusting 4 28.9
2015-Feb-25 16:50 178 28.9
2015-Feb-25 16:40 059 28.3
2015-Feb-25 16:30 116 28.9
2015-Feb-25 16:20 233 28.3
2015-Feb-25 16:10 081 1 gusting 2 28.3
2015-Feb-25 16:00 142 0 gusting 1 28.3
2015-Feb-25 15:50 054 28.3
2015-Feb-25 15:40 270 28.3
2015-Feb-25 15:30 164 0 gusting 5 28.3
2015-Feb-25 15:20 242 27.8
2015-Feb-25 15:10 189 27.8
2015-Feb-25 15:00 217 27.8
2015-Feb-25 14:50 072 27.8
2015-Feb-25 14:40 296 27.8
2015-Feb-25 14:30 067 0 gusting 1 27.2
2015-Feb-25 14:20 114 2 gusting 7 26.7
2015-Feb-25 14:10 072 3 gusting 5 26.1
2015-Feb-25 14:00 125 2 gusting 5 25.6
2015-Feb-25 13:50 315 25.0
2015-Feb-25 13:40 007 0 gusting 2 24.4
2015-Feb-25 13:30 101 2 gusting 4 23.9
2015-Feb-25 13:20 096 1 gusting 1 23.9
2015-Feb-25 13:10 088 1 gusting 2 23.3
2015-Feb-25 13:00 091 1 gusting 1 23.3
2015-Feb-25 12:50 098 1 gusting 2 22.8
2015-Feb-25 12:40 075 1 gusting 1 22.8
2015-Feb-25 12:30 075 1 gusting 1 22.2
2015-Feb-25 12:20 076 1 gusting 1 22.2
2015-Feb-25 12:10 046 0 gusting 1 22.2
2015-Feb-25 12:00 052 0 gusting 1 21.7
2015-Feb-25 11:50 050 1 gusting 1 21.7
2015-Feb-25 11:40 089 1 gusting 1 21.7
2015-Feb-25 11:30 051 0 gusting 1 21.7
2015-Feb-25 11:20 090 1 gusting 1 21.7
2015-Feb-25 11:10 071 0 gusting 2 21.7
2015-Feb-25 11:00 084 1 gusting 1 22.2
2015-Feb-25 10:50 073 0 gusting 1 21.7
2015-Feb-25 10:40 057 21.7
2015-Feb-25 10:30 065 0 gusting 0 21.7
2015-Feb-25 10:20 057 1 gusting 1 21.7
2015-Feb-25 10:10 070 1 gusting 1 21.7
2015-Feb-25 10:00 067 1 gusting 1 21.7
2015-Feb-25 09:50 070 0 gusting 0 21.7
2015-Feb-25 09:40 072 0 gusting 0 21.1
2015-Feb-25 09:30 083 21.1
2015-Feb-25 09:20 053 21.1
2015-Feb-25 09:10 069 21.1
2015-Feb-25 09:00 084 21.1
2015-Feb-25 08:50 099 21.1
2015-Feb-25 08:40 099 21.1
2015-Feb-25 08:30 099 21.7
2015-Feb-25 08:20 087 21.7
2015-Feb-25 08:10 072 21.7
2015-Feb-25 08:00 042 22.2
2015-Feb-25 07:50 037 22.2
2015-Feb-25 07:40 030 22.2
2015-Feb-25 07:30 015 0 gusting 0 22.2
2015-Feb-25 07:20 038 0 gusting 0 22.2
2015-Feb-25 07:10 075 0 gusting 0 22.2
2015-Feb-25 07:00 056 0 gusting 0 22.2
2015-Feb-25 06:50 051 0 gusting 0 22.2
2015-Feb-25 06:40 041 22.2
2015-Feb-25 06:30 056 0 gusting 1 22.2
2015-Feb-25 06:20 077 22.2
2015-Feb-25 06:10 065 22.2
2015-Feb-25 06:00 068 0 gusting 0 22.2